Station: Yunta

  Atmospheric Gas Attenuation - ITU Rec 676-11   --------------- db/100km ---------------
Date Time Temp RH % AH g/m3 Dew Point Wind Direction Speed kph Gust kph Barometer mB Rainfall Since 9am 24GHz 47GHz 76GHz 122GHz 134GHz 241GHz
16 19:20 24.1 21 4.59 0.4 22 28 1013.1 0 10.8 17.8 22.1 57.1 43.5 147.0
16 19:10 24.1 21 4.59 0.4 19 22 1013.1 0 10.8 17.8 22.1 57.1 43.5 147.0
16 19:00 24.6 20 4.5 0.2 19 33 1014.1 0 10.6 17.7 21.7 56.2 42.4 143.2
16 18:50 24.1 21 4.59 0.4 15 20 1013.1 0 10.8 17.8 22.1 57.1 43.5 147.0
16 18:40 24.1 21 4.59 0.4 17 24 1013.1 0 10.8 17.8 22.1 57.1 43.5 147.0
16 18:30 24.6 20 4.5 0.2 22 32 1013.9 0 10.6 17.7 21.7 56.1 42.4 143.2
16 18:20 24.2 19 4.18 -0.9 22 24 1013.1 0 9.9 17.3 20.8 53.8 39.5 132.7
16 18:10 24.5 19 4.25 -0.7 22 24 1013.1 0 10.1 17.3 20.9 54.2 40.0 134.6
16 18:00 24.7 18 4.07 -1.2 22 33 1013.7 0 9.7 17.1 20.4 52.7 38.2 128.3
16 17:50 24.4 18 4.01 -1.5 13 15 1013.1 0 9.6 17.1 20.3 52.4 37.7 126.6
16 17:40 24.7 17 3.85 -2 22 26 1013.1 0 9.2 16.8 19.7 51.0 36.1 120.8
16 17:30 24.9 18 4.12 -1 19 35 1013.9 0 9.8 17.1 20.5 53.0 38.6 129.7
16 17:20 24.8 18 4.1 -1.1 17 22 1013.1 0 9.7 17.1 20.4 52.8 38.4 129.1
16 17:10 24.5 17 3.8 -2.2 22 32 1013.1 0 9.1 16.8 19.6 50.7 35.7 119.4
16 17:00 25 18 4.14 -0.9 22 35 1014 0 9.8 17.2 20.5 53.1 38.7 130.2
16 16:50 24.4 19 4.23 -0.7 20 33 1013.1 0 10.0 17.3 20.9 54.1 39.8 134.1
16 16:40 25 18 4.14 -1 28 32 1013.1 0 9.8 17.1 20.5 53.0 38.7 130.1
16 16:30 24.6 18 4.05 -1.3 19 32 1014.4 0 9.6 17.1 20.4 52.6 38.1 127.8
16 16:20 24.7 18 4.07 -1.2 28 33 1013.1 0 9.7 17.1 20.4 52.7 38.2 128.2
16 16:10 24.3 19 4.2 -0.8 13 19 1013.1 0 10.0 17.3 20.8 53.9 39.6 133.2
16 16:00 24.2 18 3.96 -1.6 20 33 1014.4 0 9.5 17.1 20.2 52.2 37.4 125.4
16 15:50 23.8 18 3.87 -2 17 19 1013.1 0 9.3 17.0 20.0 51.6 36.6 122.7
16 15:40 23.6 18 3.83 -2.1 24 30 1013.1 0 9.2 17.0 19.9 51.5 36.3 121.7
16 15:30 23.8 18 3.87 -1.9 19 30 1015 0 9.3 17.1 20.1 51.8 36.7 122.9
16 15:20 23.7 18 3.85 -2 22 28 1013.1 0 9.3 17.0 20.0 51.6 36.5 122.2
16 15:10 23.6 19 4.04 -1.4 19 28 1013.1 0 9.6 17.3 20.5 53.1 38.4 128.8
16 15:00 23.6 19 4.04 -1.3 20 33 1015.5 0 9.7 17.3 20.6 53.3 38.5 129.1
16 14:50 23 20 4.11 -1.2 19 26 1013.1 0 9.8 17.4 20.9 54.0 39.3 132.2
16 14:40 23.1 21 4.34 -0.4 13 19 1013.1 0 10.3 17.7 21.6 55.8 41.6 140.0
16 14:30 22.6 21 4.22 -0.8 15 26 1015.9 0 10.1 17.7 21.4 55.4 40.7 137.0
16 14:20 22.6 22 4.42 -0.2 19 22 1013.1 0 10.5 17.9 21.9 56.8 42.6 143.6
16 14:10 22.5 22 4.39 -0.3 20 28 1013.1 0 10.4 17.9 21.9 56.6 42.4 142.7
16 14:00 22.3 23 4.54 0.2 17 24 1016.2 0 10.7 18.2 22.5 58.2 44.1 148.8
16 13:50 22 24 4.66 0.5 19 22 1013.1 0 11.0 18.3 22.8 59.2 45.3 153.2
16 13:40 21.2 23 4.26 -0.8 6 7 1013.1 0 10.2 18.0 21.8 56.4 41.7 140.3
16 13:30 22.5 24 4.79 0.9 13 28 1016.4 0 11.2 18.5 23.2 60.1 46.5 157.4
16 13:20 21.9 24 4.63 0.4 20 28 1013.1 0 10.9 18.3 22.8 59.0 45.1 152.3
16 13:10 20.8 26 4.71 0.6 9 13 1013.1 0 11.1 18.6 23.3 60.4 46.5 157.2
16 13:00 20.7 28 5.04 1.6 15 28 1016.7 0 11.8 19.2 24.5 63.6 50.2 170.1
16 12:50 20.2 27 4.72 0.6 19 20 1013.1 0 11.2 18.7 23.5 61.0 47.0 158.7
16 12:40 19.7 27 4.58 0.2 15 20 1013.1 0 10.9 18.7 23.2 60.1 45.8 154.5
16 12:30 19.4 28 4.67 0.4 17 28 1016.9 0 11.1 19.0 23.7 61.4 47.1 158.9
16 12:20 19.7 29 4.92 1.1 15 17 1013.1 0 11.6 19.1 24.3 63.0 49.4 167.1
16 12:10 19.1 31 5.08 1.6 19 22 1013.1 0 11.9 19.4 25.0 64.9 51.4 174.3
16 12:00 19.1 32 5.25 2 19 28 1017.2 0 12.3 19.8 25.7 66.7 53.5 181.4
16 11:50 19.1 33 5.41 2.4 20 26 1013.1 0 12.6 19.9 26.0 67.8 55.0 186.9
16 11:40 18.6 32 5.09 1.6 22 26 1013.1 0 12.0 19.5 25.1 65.3 51.9 175.8
16 11:30 18.5 34 5.38 2.4 17 28 1017.4 0 12.6 20.1 26.3 68.3 55.3 187.8
16 11:20 17.7 34 5.13 1.6 20 24 1013.1 0 12.1 19.8 25.6 66.4 52.9 179.2
16 11:10 17.6 37 5.55 2.7 15 20 1013.1 0 13.0 20.4 27.0 70.3 57.6 195.8
16 11:00 16.5 38 5.34 2.2 19 30 1017.5 0 12.6 20.5 26.8 69.6 56.2 190.8
16 10:50 16.9 37 5.32 2.1 20 26 1013.1 0 12.5 20.2 26.4 68.8 55.5 188.4
16 10:40 16.8 39 5.58 2.7 22 26 1013.1 0 13.1 20.6 27.4 71.2 58.5 198.9
16 10:30 16.2 40 5.52 2.6 22 32 1017.5 0 13.0 20.8 27.5 71.6 58.5 198.7
16 10:20 16.1 42 5.76 3.2 30 32 1013.1 0 13.5 21.0 28.2 73.5 61.1 207.8
16 10:10 16 42 5.72 3.1 24 30 1013.1 0 13.4 21.0 28.1 73.2 60.7 206.5
16 10:00 15.8 44 5.92 3.6 24 35 1017.6 0 13.8 21.5 29.0 75.7 63.4 215.9
16 09:50 14.7 46 5.79 3.2 26 30 1013.1 0 13.6 21.4 28.8 75.1 62.5 212.7
16 09:40 14.5 47 5.85 3.3 30 35 1013.1 0 13.7 21.5 29.1 75.8 63.3 215.7
16 09:30 14.4 48 5.93 3.5 26 35 1017.8 0 13.9 21.8 29.6 77.1 64.6 220.1
16 09:20 14.6 49 6.13 4 26 32 1013.1 0 14.3 21.9 30.0 78.4 66.6 227.0
16 09:10 14.1 49 5.95 3.5 30 37 1013.1 0 13.9 21.7 29.6 77.2 64.8 220.9
16 09:00 14.1 49 5.95 3.6 26 41 1017.7 0 13.9 21.9 29.8 77.6 65.1 221.8
16 08:50 13.7 51 6.04 3.7 20 26 1013.1 0 14.1 22.0 30.1 78.4 66.2 225.8
16 08:40 13.5 52 6.08 3.8 20 28 1013.1 0 14.2 22.1 30.3 79.0 66.9 228.0
16 08:30 13.7 52 6.16 4 20 30 1017.8 0 14.4 22.3 30.7 80.0 68.0 231.8
16 08:20 13.3 54 6.24 4.2 19 22 1013.1 0 14.6 22.4 30.9 80.8 69.0 235.4
16 08:10 13.2 54 6.2 4.1 15 17 1013.1 0 14.5 22.3 30.8 80.5 68.6 234.0
16 08:00 12.4 56 6.12 3.9 19 24 1017.7 0 14.4 22.6 31.0 80.9 68.6 233.8
16 07:50 12.4 55 6.01 3.8 15 20 1013.1 0 14.1 22.2 30.4 79.4 67.0 228.2
16 07:40 11.8 57 6 3.5 7 9 1013.1 0 14.1 22.4 30.6 79.9 67.4 229.4
16 07:30 11.5 58 5.99 3.5 9 13 1017.5 0 14.1 22.6 30.9 80.5 67.8 230.7
16 07:20 10.9 60 5.97 3.4 7 9 1013.1 0 14.1 22.5 30.8 80.5 67.8 230.7
16 07:10 10.3 59 5.65 2.8 6 6 1013.1 0 13.4 22.2 29.9 77.9 64.3 218.5
16 07:00 10.1 61 5.77 2.9 7 9 1017.1 0 13.7 22.6 30.5 79.6 66.2 225.1
16 06:50 9.5 63 5.74 2.8 9 9 1013.1 0 13.7 22.5 30.5 79.6 66.1 224.7
16 06:40 9.3 63 5.66 2.6 7 7 1013.1 0 13.5 22.5 30.3 79.0 65.3 221.7
16 06:30 9.7 63 5.81 3 7 9 1017.1 0 13.8 22.7 30.9 80.4 67.0 228.0
16 06:20 9.9 63 5.88 3.2 9 11 1013.1 0 13.9 22.7 30.9 80.6 67.5 229.7
16 06:10 9.9 63 5.88 3.2 13 15 1013.1 0 13.9 22.7 30.9 80.6 67.5 229.7
16 06:00 10.1 62 5.86 3.2 11 13 1016.8 0 13.9 22.7 30.9 80.5 67.3 229.0
16 05:50 10.4 61 5.88 3.2 9 11 1013.1 0 13.9 22.5 30.7 80.1 67.1 228.2
16 05:40 10.4 61 5.88 3.2 9 9 1013.1 0 13.9 22.5 30.7 80.1 67.1 228.2
16 05:30 10.6 61 5.96 3.4 7 11 1016.7 0 14.1 22.7 31.1 81.0 68.1 231.9
16 05:20 10.6 61 5.96 3.4 6 7 1013.1 0 14.1 22.6 30.9 80.7 67.9 231.2
16 05:10 10.3 61 5.84 3.1 4 6 1013.1 0 13.8 22.5 30.6 79.8 66.7 226.8
16 04:50 10.7 60 5.89 3.2 11 13 1013.1 0 13.9 22.5 30.6 79.9 66.9 227.8
16 04:40 10.8 59 5.83 3.1 11 15 1013.1 0 13.8 22.4 30.4 79.2 66.1 224.9
16 04:30 10.7 58 5.7 2.8 11 19 1016 0 13.5 22.3 30.0 78.2 64.8 220.1
16 04:20 10.7 57 5.6 2.7 11 15 1013.1 0 13.3 22.0 29.5 77.0 63.4 215.3
16 04:10 10.7 57 5.6 2.7 13 15 1013.1 0 13.3 22.0 29.5 77.0 63.4 215.3
16 04:00 10.8 57 5.64 2.6 13 15 1016 0 13.4 22.2 29.8 77.6 63.9 217.3
16 03:50 11 57 5.71 2.8 9 11 1013.1 0 13.5 22.1 29.8 77.8 64.5 219.2
16 03:40 11.2 56 5.68 2.7 9 11 1013.1 0 13.5 22.0 29.7 77.3 63.9 217.4
16 03:30 11.4 55 5.65 2.7 9 11 1016.3 0 13.4 22.1 29.6 77.1 63.6 216.1
16 03:20 11.6 54 5.61 2.8 11 13 1013.1 0 13.3 21.8 29.2 76.2 62.8 213.3
16 03:10 11.7 55 5.75 2.9 13 17 1013.1 0 13.6 22.0 29.7 77.5 64.4 219.0
16 03:00 11.7 55 5.75 3 15 19 1016 0 13.6 22.1 29.8 77.8 64.6 219.6
16 02:50 11.8 53 5.58 2.5 13 15 1013.1 0 13.2 21.7 29.1 75.8 62.3 211.5
16 02:40 11.8 53 5.58 2.5 15 17 1013.1 0 13.2 21.7 29.1 75.8 62.3 211.5

Last Refresh: 16-Jan-2021 19:24:16

Most of the information presented on this site is sourced from the Bureau of Meteorology.  Copyright in all material sourced from the Bureau of Meteorology resides with the Commonwealth of Australia.